Aeroporto :
LOGIN :

Iscrizione | Disclaimer

   EN    FR    IT 

 










Sommario :    VFR   VFR Marginale   IFR   IFR Intensivo   IFR Molto Intensivo
Visibilità : 
Base nubi : 
>= 8 km
>= 3000ft
5 / 8 km
1000 / 3000 ft
1500m / 5 km
500 / 1000 ft
800 / 1500m
200 / 500 ft
< 800m
< 200 ft
Simboli :   Temporali  Nebbia  Neve Forte  Precipitazioni Forti  Vento > 20 kt
SIGMETs :   Varie  Temporali  Ghiacco  Turbolenza  Onda orograficha  Ceneri Vulcaniche






- Altitudine del aeroporto : 75 ft
- Codice IATA : MRH


EGYM - RAF Marham

ULTIMO METAR :
  • 211650Z 36007KT 5000 BR BKN005 OVC060 14/13 Q1008 RMK YLO1

METARs OBSOLETI :
  • 211620Z 35007KT 5000 BKN005 OVC050 14/13 Q1008 TEMPO 5000 SHRA SCT020 RMK YLO1 TEMPO WHT
  • 211550Z 35009KT 2500 RA FEW004 SCT015CB OVC050 14/14 Q1008 TEMPO 5000 SHRA SCT020 RMK YLO1 TEMPO WHT
  • 211520Z 01007KT 2000 RA FEW005 BKN015CB 15/14 Q1009 TEMPO 1500 TSRA SCT008 BKN020 RMK YLO2 TEMPO AMB
  • 211511Z 36006KT 3000 RA FEW008 SCT015 15/14 Q1009 TEMPO 2000 TSRA SCT008 BKN002 RMK YLO1 TEMPO YLO2
  • 211420Z 01007KT 8000 RA SCT018 OVC100 17/13 Q1008 TEMPO 2000 TSRA SCT008 BKN002 RMK WHT TEMPO YLO2
  • 211350Z 36007KT 8000 SCT020 OVC100 17/13 Q1009 TEMPO 2000 TSRA SCT008 BKN002 RMK WHT TEMPO YLO2
  • 211320Z 36007KT 8000 FEW006 SCT020 BKN200 19/14 Q1009 TEMPO 2000 TSRA SCT008 BKN002 RMK WHT TEMPO YLO2
  • 211250Z 01008KT 8000 BKN018 18/15 Q1009 TEMPO 2000 TSRA SCT008 BKN002 RMK WHT TEMPO AMB
  • 211220Z 36007KT 8000 SCT016 BKN022 18/15 Q1009 TEMPO 3000 +SHRA SCT010 BKN020 RMK WHT TEMPO YLO1

TAF AMD TAF EGYM
Valido dal 21 a 15 ore il 21 a 18 ore UTC


211445Z 2115/2118 02008KT 9999 SCT022
TEMPO 2115/2118 SCT025
TEMPO 2115/2118 5000 SHRA SCT020
PROB30
TEMPO 2115/2118 2000 +SHRA SCT010 BKN020CB
PROB30
TEMPO 2115/2116 1500 TSRAGS SCT008 BKN020CB



MetMap, La meteo Aeronautica in un colpo d'occhio ! - Copyright ORBIFLY Dicembre 2007 - Disclaimer

ORBIFLY MET'MAP TEAM :

Programmazione e sviluppo : Alexandra Zaïnal
Concezione : Baudouin d'Aumeries
Supporto tecnico e logistico : Manuel Goepfert
Aiuto : Marc-Olivier Méhu
Aiuto per la traduzione : Arnaldo La Scala




FONTI E CREDITI :

   NOAA